Time;durP1;ratioP1;P1;durP2;ratioP2;P2;SDS_P1;SDS_P2;PMS_P1;PMS_P2;Temp;Humidity;BMP_temperature;BMP_pressure;BME280_temperature;BME280_humidity;BME280_pressure;Samples;Min_cycle;Max_cycle;Signal;HPM_P1;HPM_P2
2021/08/27 00:02:25;;;;;;;3.53;1.83;;;;;;;21.78;61.39;97799.16;5051450;28;20206;-66
2021/08/27 00:04:53;;;;;;;9.30;1.93;;;;;;;21.56;60.77;97800.56;5043294;28;20599;-68
2021/08/27 00:07:20;;;;;;;5.97;1.97;;;;;;;21.99;59.37;97805.34;5041634;28;20573;-66
2021/08/27 00:09:47;;;;;;;3.37;1.63;;;;;;;21.86;59.72;97795.06;5045940;28;20212;-67
2021/08/27 00:12:15;;;;;;;3.20;1.70;;;;;;;22.20;58.55;97798.72;5042400;28;20571;-67
2021/08/27 00:14:42;;;;;;;6.47;1.80;;;;;;;21.84;58.63;97795.34;5049951;28;20296;-67
2021/08/27 00:17:09;;;;;;;5.13;2.00;;;;;;;21.71;60.68;97792.41;5037568;28;20228;-67
2021/08/27 00:19:38;;;;;;;4.77;1.97;;;;;;;21.48;62.95;97793.00;5046263;28;20228;-67
2021/08/27 00:22:05;;;;;;;5.03;1.70;;;;;;;21.16;62.78;97789.78;5033561;28;20221;-68
2021/08/27 00:24:33;;;;;;;5.70;2.07;;;;;;;21.91;60.12;97786.91;5036372;28;20268;-67
2021/08/27 00:27:00;;;;;;;4.63;1.87;;;;;;;21.95;59.97;97785.25;5043141;28;20231;-67
2021/08/27 00:29:27;;;;;;;3.77;1.90;;;;;;;21.16;63.43;97789.78;5043450;28;20202;-66
2021/08/27 00:31:54;;;;;;;3.00;1.70;;;;;;;21.41;61.73;97796.00;5047152;28;20212;-66
2021/08/27 00:34:22;;;;;;;4.23;1.83;;;;;;;21.70;61.55;97798.94;5046465;28;20208;-67
2021/08/27 00:36:50;;;;;;;7.30;2.10;;;;;;;20.81;63.88;97792.47;5061239;22;20610;-70
2021/08/27 00:39:17;;;;;;;3.90;2.10;;;;;;;21.63;61.99;97798.41;5055651;28;20396;-70
2021/08/27 00:41:45;;;;;;;4.27;2.10;;;;;;;22.01;61.66;97795.84;5061497;28;20665;-72
2021/08/27 00:44:12;;;;;;;3.73;1.73;;;;;;;22.45;59.20;97804.84;5064993;28;20231;-72
2021/08/27 00:46:39;;;;;;;5.87;2.40;;;;;;;22.03;60.80;97793.63;5062645;28;20207;-70
2021/08/27 00:49:07;;;;;;;3.33;1.87;;;;;;;21.63;63.10;97798.41;5047215;28;20226;-70
2021/08/27 00:51:35;;;;;;;4.17;1.90;;;;;;;22.51;57.93;97808.38;5042237;28;20661;-71
2021/08/27 00:54:04;;;;;;;3.77;2.00;;;;;;;22.52;58.21;97810.81;5041380;28;20576;-70
2021/08/27 00:56:31;;;;;;;4.47;1.97;;;;;;;22.25;59.31;97806.88;5043565;28;20210;-70
2021/08/27 00:58:59;;;;;;;6.37;2.00;;;;;;;22.32;59.43;97805.47;5041972;28;20236;-70
2021/08/27 01:01:27;;;;;;;3.27;1.70;;;;;;;22.49;59.28;97813.28;5041360;28;20214;-70
2021/08/27 01:03:54;;;;;;;5.73;2.23;;;;;;;22.53;57.24;97814.31;5045088;28;20222;-70
2021/08/27 01:06:26;;;;;;;4.37;2.23;;;;;;;22.41;57.06;97813.84;5049592;28;20214;-70
2021/08/27 01:08:58;;;;;;;5.93;2.20;;;;;;;22.44;58.16;97810.56;5044934;28;20225;-70
2021/08/27 01:11:31;;;;;;;5.17;1.70;;;;;;;22.78;57.35;97814.97;5041649;28;20198;-70
2021/08/27 01:14:02;;;;;;;5.30;2.00;;;;;;;23.18;54.07;97825.59;5042349;28;20213;-70
2021/08/27 01:16:32;;;;;;;3.10;1.80;;;;;;;22.78;56.75;97811.44;5040223;28;20206;-70
2021/08/27 01:19:11;;;;;;;5.73;2.23;;;;;;;22.24;56.73;97808.75;5042601;28;20238;-70
2021/08/27 01:21:58;;;;;;;5.03;1.83;;;;;;;21.74;61.67;97794.59;5039847;28;20213;-70
2021/08/27 01:24:26;;;;;;;3.17;1.67;;;;;;;22.27;59.18;97796.50;5042482;28;20226;-70
2021/08/27 01:26:58;;;;;;;3.70;2.07;;;;;;;21.57;60.90;97794.88;5048173;28;20593;-70
2021/08/27 01:29:33;;;;;;;4.10;2.53;;;;;;;21.74;61.24;97797.28;5045488;28;20197;-70
2021/08/27 01:32:04;;;;;;;6.20;2.50;;;;;;;22.02;60.78;97797.47;5039983;28;21059;-70
2021/08/27 01:34:35;;;;;;;6.17;2.17;;;;;;;22.33;59.08;97806.25;5048036;28;20205;-70
2021/08/27 01:37:03;;;;;;;3.37;2.03;;;;;;;21.87;63.03;97789.38;5045617;28;20264;-70
2021/08/27 01:39:34;;;;;;;4.63;2.27;;;;;;;22.33;60.33;97795.38;5042444;28;20210;-70
2021/08/27 01:42:03;;;;;;;3.93;2.13;;;;;;;22.64;57.53;97803.09;5044191;28;20666;-70
2021/08/27 01:44:30;;;;;;;4.93;2.40;;;;;;;21.58;62.22;97788.34;5044709;28;20240;-70
2021/08/27 01:46:59;;;;;;;6.60;2.50;;;;;;;22.10;61.13;97796.06;5040255;28;20209;-70
2021/08/27 01:49:29;;;;;;;3.87;2.00;;;;;;;22.01;60.19;97798.56;5047059;28;20212;-70
2021/08/27 01:51:59;;;;;;;9.57;2.33;;;;;;;22.13;60.60;97790.03;5042769;28;20232;-70
2021/08/27 01:54:28;;;;;;;5.70;2.17;;;;;;;21.77;63.03;97794.00;5042140;28;20641;-70
2021/08/27 01:56:55;;;;;;;5.27;2.17;;;;;;;21.44;65.50;97787.28;5043148;28;20207;-70
2021/08/27 01:59:24;;;;;;;5.63;2.33;;;;;;;21.82;62.33;97786.66;5042696;28;20308;-70
2021/08/27 02:01:51;;;;;;;5.93;2.80;;;;;;;21.93;62.74;97793.69;5046397;28;20206;-71
2021/08/27 02:04:19;;;;;;;6.53;2.60;;;;;;;22.11;62.27;97792.25;5048861;28;20697;-71
2021/08/27 02:06:47;;;;;;;4.13;2.23;;;;;;;22.14;62.39;97791.69;5044975;28;20662;-71
2021/08/27 02:09:16;;;;;;;7.73;2.83;;;;;;;21.62;63.87;97789.41;5042286;28;20210;-71
2021/08/27 02:11:44;;;;;;;7.87;2.67;;;;;;;21.73;63.80;97795.69;5035944;28;20208;-71
2021/08/27 02:14:12;;;;;;;6.47;2.93;;;;;;;21.46;64.34;97797.88;5043040;28;20335;-71
2021/08/27 02:16:40;;;;;;;3.50;2.20;;;;;;;21.55;65.67;97796.22;5038950;28;20202;-71
2021/08/27 02:19:07;;;;;;;6.50;2.70;;;;;;;21.41;66.30;97797.88;5051200;28;20603;-71
2021/08/27 02:21:42;;;;;;;8.23;2.77;;;;;;;21.20;67.13;97794.41;5049689;28;20666;-71
2021/08/27 02:24:13;;;;;;;5.73;2.37;;;;;;;21.27;66.41;97803.06;5045847;28;20225;-71
2021/08/27 02:26:46;;;;;;;4.40;2.37;;;;;;;21.68;65.04;97798.38;5048427;28;20212;-70
2021/08/27 02:29:17;;;;;;;6.93;2.47;;;;;;;21.14;66.38;97803.66;5043651;28;20212;-70
2021/08/27 02:31:45;;;;;;;3.70;2.50;;;;;;;21.70;67.46;97807.09;5042291;28;20204;-70
2021/08/27 02:34:14;;;;;;;5.47;2.43;;;;;;;21.84;64.64;97808.94;5044782;28;20753;-70
2021/08/27 02:36:42;;;;;;;4.73;2.50;;;;;;;21.92;64.01;97797.50;5049912;28;20205;-71
2021/08/27 02:39:10;;;;;;;5.53;2.70;;;;;;;21.18;66.62;97803.91;5049300;28;20206;-70
2021/08/27 02:41:38;;;;;;;4.87;2.60;;;;;;;21.36;68.15;97806.03;5045810;28;20552;-71
2021/08/27 02:44:07;;;;;;;3.47;2.50;;;;;;;20.57;72.42;97803.03;5050155;28;20263;-70
2021/08/27 02:46:35;;;;;;;7.90;2.90;;;;;;;21.18;68.67;97803.91;5052631;28;20201;-70
2021/08/27 02:49:02;;;;;;;5.00;2.67;;;;;;;21.40;67.78;97807.13;5050345;28;20218;-71
2021/08/27 02:51:35;;;;;;;6.17;2.40;;;;;;;21.26;68.55;97798.75;5044736;28;20655;-71
2021/08/27 02:54:04;;;;;;;4.23;2.50;;;;;;;21.68;66.51;97801.09;5049394;28;20285;-71
2021/08/27 02:56:34;;;;;;;7.30;2.97;;;;;;;20.98;70.46;97798.50;5041689;28;20589;-71
2021/08/27 02:59:02;;;;;;;5.20;2.90;;;;;;;21.07;69.74;97802.28;5050729;28;20256;-71
2021/08/27 03:01:37;;;;;;;5.57;2.80;;;;;;;20.97;71.78;97800.38;5044605;28;20244;-71
2021/08/27 03:04:09;;;;;;;6.77;3.07;;;;;;;21.55;68.79;97804.38;5052933;28;20711;-70
2021/08/27 03:06:42;;;;;;;7.77;3.13;;;;;;;21.72;66.85;97800.28;5050223;28;20198;-70
2021/08/27 03:09:10;;;;;;;8.97;4.07;;;;;;;21.60;68.04;97809.78;5046378;28;20206;-71
2021/08/27 03:11:42;;;;;;;4.23;2.70;;;;;;;21.49;67.65;97811.72;5050788;28;20249;-70
2021/08/27 03:14:12;;;;;;;5.53;3.10;;;;;;;21.17;70.64;97810.44;5047661;28;20216;-70
2021/08/27 03:16:44;;;;;;;4.33;2.60;;;;;;;21.40;69.29;97802.53;5049362;28;20334;-70
2021/08/27 03:19:15;;;;;;;6.73;3.13;;;;;;;21.23;70.64;97795.75;5044246;28;20208;-70
2021/08/27 03:21:47;;;;;;;6.10;3.43;;;;;;;21.07;71.47;97799.59;5048654;28;20574;-70
2021/08/27 03:24:17;;;;;;;6.67;3.80;;;;;;;21.08;73.06;97804.72;5043224;28;20236;-70
2021/08/27 03:26:45;;;;;;;9.83;3.87;;;;;;;21.06;71.71;97797.94;5051779;28;20202;-70
2021/08/27 03:29:15;;;;;;;8.37;3.80;;;;;;;20.68;74.38;97793.81;5042273;28;20214;-70
2021/08/27 03:31:44;;;;;;;9.93;4.00;;;;;;;21.02;73.58;97802.28;5040473;28;20552;-70
2021/08/27 03:34:12;;;;;;;7.77;3.70;;;;;;;20.59;75.62;97798.19;5050000;28;20591;-70
2021/08/27 03:36:41;;;;;;;8.90;3.47;;;;;;;21.36;71.56;97792.47;5053516;28;20554;-70
2021/08/27 03:39:10;;;;;;;5.07;3.53;;;;;;;21.44;71.11;97800.06;5049352;28;20708;-70
2021/08/27 03:41:38;;;;;;;7.43;3.13;;;;;;;21.21;72.76;97796.03;5044550;28;20209;-70
2021/08/27 03:44:06;;;;;;;10.23;3.83;;;;;;;21.06;74.54;97796.03;5048818;28;20232;-70
2021/08/27 03:46:33;;;;;;;6.87;3.70;;;;;;;21.86;68.62;97801.34;5043396;28;20219;-70
2021/08/27 03:49:02;;;;;;;6.77;4.50;;;;;;;21.59;70.55;97800.03;5047627;28;20235;-70
2021/08/27 03:51:29;;;;;;;7.57;4.70;;;;;;;21.04;76.08;97802.81;5042190;28;20707;-70
2021/08/27 03:53:57;;;;;;;8.93;4.70;;;;;;;20.90;74.86;97794.44;5047147;28;20202;-70
2021/08/27 03:56:26;;;;;;;7.73;4.60;;;;;;;20.80;75.89;97794.38;5045416;28;20197;-70
2021/08/27 03:58:54;;;;;;;8.77;4.50;;;;;;;20.93;74.47;97799.28;5048997;28;20594;-70
2021/08/27 04:01:22;;;;;;;12.73;5.07;;;;;;;21.33;71.62;97806.59;5048427;28;20287;-70
2021/08/27 04:03:49;;;;;;;8.17;4.67;;;;;;;20.80;74.98;97794.38;5050906;28;20209;-70
2021/08/27 04:06:18;;;;;;;8.70;5.20;;;;;;;21.43;70.70;97804.66;5046938;28;20582;-70
2021/08/27 04:08:46;;;;;;;7.40;4.50;;;;;;;21.54;70.80;97808.19;5043100;28;20235;-70
2021/08/27 04:11:15;;;;;;;9.80;5.13;;;;;;;21.26;71.63;97806.88;5037396;28;20206;-70
2021/08/27 04:13:43;;;;;;;7.60;4.83;;;;;;;21.20;72.82;97812.59;5046046;28;20289;-70
2021/08/27 04:16:10;;;;;;;7.40;4.57;;;;;;;21.27;72.81;97811.22;5045031;28;20545;-70
2021/08/27 04:18:37;;;;;;;8.17;4.03;;;;;;;21.02;73.87;97816.66;5044703;28;20234;-70
2021/08/27 04:21:05;;;;;;;6.67;3.90;;;;;;;20.55;74.29;97817.94;5045264;28;20210;-70
2021/08/27 04:23:33;;;;;;;9.63;4.80;;;;;;;21.03;72.03;97820.19;5051121;28;20206;-70
2021/08/27 04:26:01;;;;;;;10.30;4.93;;;;;;;20.46;73.72;97819.56;5047189;28;20222;-70
2021/08/27 04:28:28;;;;;;;8.30;4.80;;;;;;;20.97;74.35;97821.28;5050808;28;20730;-71
2021/08/27 04:30:55;;;;;;;7.20;4.10;;;;;;;20.85;73.45;97824.22;5038274;28;20633;-70
2021/08/27 04:33:22;;;;;;;7.30;4.87;;;;;;;20.68;73.88;97829.06;5042268;28;20245;-70
2021/08/27 04:35:50;;;;;;;8.03;4.60;;;;;;;20.64;75.57;97819.03;5046513;28;20206;-70
2021/08/27 04:38:17;;;;;;;9.50;4.80;;;;;;;20.55;74.71;97832.31;5046946;28;20228;-70
2021/08/27 04:40:46;;;;;;;9.30;4.67;;;;;;;20.98;73.28;97831.84;5039962;28;20287;-71
2021/08/27 04:43:13;;;;;;;6.60;5.00;;;;;;;20.72;75.33;97830.19;5051298;28;20642;-71
2021/08/27 04:45:40;;;;;;;10.40;4.93;;;;;;;20.99;74.14;97838.09;5045207;28;20229;-71
2021/08/27 04:48:08;;;;;;;8.83;4.63;;;;;;;20.86;72.26;97841.31;5047106;28;20222;-70
2021/08/27 04:50:35;;;;;;;8.70;5.47;;;;;;;20.61;73.19;97838.56;5044560;28;20570;-71
2021/08/27 04:53:02;;;;;;;8.47;5.30;;;;;;;20.97;73.07;97834.84;5046680;28;20200;-70
2021/08/27 04:55:29;;;;;;;6.33;4.40;;;;;;;20.66;74.20;97835.84;5041894;28;20196;-71
2021/08/27 04:57:58;;;;;;;7.47;5.23;;;;;;;20.81;73.93;97842.13;5046803;28;20690;-71
2021/08/27 05:00:25;;;;;;;9.67;5.77;;;;;;;20.29;76.52;97848.78;5042398;28;20209;-70
2021/08/27 05:02:53;;;;;;;9.90;5.63;;;;;;;20.81;75.53;97846.72;5046681;28;20207;-71
2021/08/27 05:05:20;;;;;;;7.57;5.63;;;;;;;21.12;71.81;97854.66;5048934;28;20225;-71
2021/08/27 05:07:47;;;;;;;10.40;6.63;;;;;;;20.86;75.16;97849.44;5043340;28;20715;-71
2021/08/27 05:10:15;;;;;;;10.33;6.67;;;;;;;21.11;73.65;97858.47;5055574;28;20202;-71
2021/08/27 05:12:42;;;;;;;15.30;7.40;;;;;;;20.95;72.69;97856.00;5048158;28;20233;-71
2021/08/27 05:15:11;;;;;;;13.03;7.20;;;;;;;21.20;73.67;97862.25;5047591;28;20198;-71
2021/08/27 05:17:40;;;;;;;11.90;7.30;;;;;;;20.78;75.87;97863.56;5045345;28;20250;-71
2021/08/27 05:20:08;;;;;;;14.93;7.77;;;;;;;20.14;78.61;97854.16;5035428;28;20203;-71
2021/08/27 05:22:35;;;;;;;11.00;7.43;;;;;;;21.09;74.34;97865.25;5048271;28;20551;-71
2021/08/27 05:25:03;;;;;;;10.47;7.60;;;;;;;20.98;72.55;97864.41;5043851;28;20222;-71
2021/08/27 05:27:30;;;;;;;13.80;8.43;;;;;;;21.41;70.67;97861.16;5045935;28;20236;-73
2021/08/27 05:29:58;;;;;;;12.63;8.10;;;;;;;21.39;71.72;97870.66;5040923;28;20205;-72
2021/08/27 05:32:27;;;;;;;12.00;8.30;;;;;;;20.47;76.15;97867.28;5043165;28;20211;-74
2021/08/27 05:34:54;;;;;;;12.20;7.60;;;;;;;21.23;71.67;97879.91;5045235;28;20266;-71
2021/08/27 05:37:22;;;;;;;11.83;8.60;;;;;;;20.69;75.94;97876.00;5044993;28;20235;-72
2021/08/27 05:39:50;;;;;;;12.77;9.10;;;;;;;20.95;74.23;97889.38;5046266;28;20571;-72
2021/08/27 05:42:17;;;;;;;10.57;7.97;;;;;;;21.23;73.61;97888.06;5035373;28;20221;-72
2021/08/27 05:44:45;;;;;;;10.90;7.80;;;;;;;21.50;70.44;97889.41;5050655;28;20219;-73
2021/08/27 05:47:12;;;;;;;10.97;7.53;;;;;;;21.35;70.83;97902.97;5043051;28;20250;-72
2021/08/27 05:49:41;;;;;;;11.97;7.57;;;;;;;20.69;75.49;97892.28;5042726;28;20231;-73
2021/08/27 05:52:09;;;;;;;11.17;7.00;;;;;;;20.79;74.35;97897.72;5045169;28;20695;-71
2021/08/27 05:54:36;;;;;;;11.30;7.80;;;;;;;20.65;74.11;97902.84;5053006;28;20649;-78
2021/08/27 05:57:04;;;;;;;11.27;6.53;;;;;;;20.66;74.16;97909.06;5045862;28;20626;-80
2021/08/27 05:59:31;;;;;;;12.37;7.30;;;;;;;20.70;75.43;97910.19;5059049;28;20267;-74
2021/08/27 06:01:58;;;;;;;11.83;6.83;;;;;;;21.16;72.82;97901.06;5045099;28;20657;-72
2021/08/27 06:04:26;;;;;;;9.47;5.80;;;;;;;20.89;72.48;97912.16;5050541;28;20206;-72
2021/08/27 06:06:54;;;;;;;9.60;5.97;;;;;;;21.50;68.90;97913.84;5043041;28;20229;-72
2021/08/27 06:09:22;;;;;;;8.07;5.63;;;;;;;21.46;69.28;97914.63;5049253;28;20297;-71
2021/08/27 06:11:49;;;;;;;9.27;5.00;;;;;;;20.58;76.18;97904.19;5045768;28;20291;-72
2021/08/27 06:14:16;;;;;;;7.43;4.77;;;;;;;21.30;71.72;97918.44;5049192;28;20246;-72
2021/08/27 06:16:47;;;;;;;7.83;4.80;;;;;;;21.35;70.64;97921.16;5052766;28;20208;-73
2021/08/27 06:19:14;;;;;;;7.77;5.20;;;;;;;21.39;70.83;97920.34;5049060;28;20208;-71
2021/08/27 06:21:41;;;;;;;7.97;4.20;;;;;;;21.67;68.30;97927.09;5047910;28;20297;-71
2021/08/27 06:24:10;;;;;;;9.10;3.83;;;;;;;21.53;69.32;97931.50;5050620;28;20225;-72
2021/08/27 06:26:37;;;;;;;11.50;4.30;;;;;;;21.47;68.28;97932.56;5049520;28;20222;-71
2021/08/27 06:29:06;;;;;;;8.77;3.90;;;;;;;21.43;69.14;97929.56;5047318;28;20230;-71
2021/08/27 06:31:33;;;;;;;9.33;4.30;;;;;;;21.75;66.01;97932.88;5049332;28;20223;-74
2021/08/27 06:34:01;;;;;;;7.23;3.60;;;;;;;22.37;63.72;97937.84;5046740;28;20209;-71
2021/08/27 06:36:28;;;;;;;8.77;3.47;;;;;;;21.78;63.63;97932.28;5046037;28;20201;-73
2021/08/27 06:38:55;;;;;;;10.50;3.77;;;;;;;21.53;65.35;97929.56;5046568;28;20230;-71
2021/08/27 06:41:24;;;;;;;6.87;3.77;;;;;;;21.84;63.49;97928.47;5047457;28;20302;-71
2021/08/27 06:43:51;;;;;;;8.07;3.10;;;;;;;21.94;65.23;97928.47;5045736;28;20241;-71
2021/08/27 06:46:21;;;;;;;7.47;3.70;;;;;;;21.37;67.19;97927.13;5044505;28;20226;-71
2021/08/27 06:48:54;;;;;;;6.43;3.60;;;;;;;22.32;61.69;97935.97;5044329;28;20232;-70
2021/08/27 06:51:26;;;;;;;6.93;3.40;;;;;;;21.87;63.81;97932.56;5049680;28;20206;-71
2021/08/27 06:53:54;;;;;;;6.83;3.10;;;;;;;22.76;59.27;97945.06;5046819;28;20225;-72
2021/08/27 06:56:29;;;;;;;6.33;2.97;;;;;;;22.77;58.26;97930.38;5052340;28;20194;-72
2021/08/27 06:58:57;;;;;;;6.53;2.90;;;;;;;22.90;58.39;97945.28;5045063;28;20229;-73
2021/08/27 07:01:24;;;;;;;5.23;2.90;;;;;;;23.34;56.13;97940.63;5041833;28;20207;-73
2021/08/27 07:03:52;;;;;;;6.20;2.93;;;;;;;23.02;55.55;97951.19;5051621;28;20584;-73
2021/08/27 07:06:19;;;;;;;6.73;2.93;;;;;;;22.86;57.18;97944.19;5041277;28;20230;-73
2021/08/27 07:08:47;;;;;;;4.47;2.60;;;;;;;22.66;56.20;97955.19;5039160;28;20223;-73
2021/08/27 07:11:15;;;;;;;5.90;3.10;;;;;;;21.81;61.14;97939.91;5037908;28;20208;-73
2021/08/27 07:13:43;;;;;;;5.50;2.47;;;;;;;21.71;60.21;97947.25;5043422;28;20226;-73
2021/08/27 07:16:12;;;;;;;7.47;2.60;;;;;;;22.36;59.56;97938.94;5034141;28;20210;-73
2021/08/27 07:18:40;;;;;;;7.37;3.20;;;;;;;21.64;64.23;97933.09;5035339;28;20237;-70
2021/08/27 07:21:08;;;;;;;7.80;3.00;;;;;;;22.25;61.35;97934.66;5043275;28;20359;-72
2021/08/27 07:23:36;;;;;;;4.13;2.57;;;;;;;21.75;61.93;97945.63;5049391;28;20293;-71
2021/08/27 07:26:03;;;;;;;9.40;2.90;;;;;;;21.48;61.62;97954.00;5049215;28;20242;-72
2021/08/27 07:28:30;;;;;;;8.27;2.73;;;;;;;22.15;60.07;97945.56;5040932;28;20235;-72
2021/08/27 07:30:59;;;;;;;8.30;2.50;;;;;;;21.94;58.00;97960.28;5041895;28;20202;-72
2021/08/27 07:33:35;;;;;;;6.43;2.20;;;;;;;21.47;59.93;97957.81;5039938;28;20211;-72
2021/08/27 07:36:03;;;;;;;3.30;2.10;;;;;;;21.71;58.27;97952.69;5042015;28;20203;-72
2021/08/27 07:38:30;;;;;;;7.10;2.07;;;;;;;22.58;54.92;97953.84;5053532;28;20265;-72
2021/08/27 07:40:58;;;;;;;6.77;2.10;;;;;;;22.79;53.93;97949.94;5047199;28;20295;-69
2021/08/27 07:43:25;;;;;;;7.83;2.27;;;;;;;22.82;52.53;97956.72;5042571;28;20210;-71
2021/08/27 07:45:57;;;;;;;2.97;1.57;;;;;;;22.85;50.77;97967.88;5036986;28;20703;-71
2021/08/27 07:48:25;;;;;;;3.63;1.63;;;;;;;22.23;51.50;97972.97;5034650;28;20242;-73
2021/08/27 07:50:55;;;;;;;3.10;1.43;;;;;;;22.91;51.29;97968.66;5043114;28;20200;-71
2021/08/27 07:53:23;;;;;;;3.73;1.60;;;;;;;22.91;49.85;97974.91;5044681;28;20200;-71
2021/08/27 07:55:52;;;;;;;3.67;1.23;;;;;;;23.99;46.49;97991.91;5043212;28;20287;-72
2021/08/27 07:58:19;;;;;;;5.07;1.80;;;;;;;22.52;52.68;97982.19;5043405;28;20223;-71
2021/08/27 08:00:49;;;;;;;4.80;1.50;;;;;;;22.00;53.78;97987.16;5048130;28;20214;-70
2021/08/27 08:03:19;;;;;;;6.47;1.47;;;;;;;23.58;48.97;97994.13;5050265;28;20211;-70
2021/08/27 08:05:47;;;;;;;4.30;1.77;;;;;;;23.52;47.95;97984.34;5045454;28;20693;-74
2021/08/27 08:08:16;;;;;;;3.27;1.50;;;;;;;23.25;49.48;97975.84;5046008;28;20231;-75
2021/08/27 08:10:44;;;;;;;1.80;1.10;;;;;;;23.37;48.70;97979.03;5048253;28;20210;-74
2021/08/27 08:13:11;;;;;;;2.40;1.30;;;;;;;23.32;48.71;97984.53;5049621;28;20598;-70
2021/08/27 08:15:38;;;;;;;2.87;1.07;;;;;;;23.11;48.27;97985.69;5050108;28;20291;-73
2021/08/27 08:18:06;;;;;;;4.27;1.87;;;;;;;24.19;44.82;97988.97;5056704;28;20232;-72
2021/08/27 08:20:33;;;;;;;2.87;1.63;;;;;;;23.25;46.69;97991.38;5049637;28;20243;-72
2021/08/27 08:23:01;;;;;;;2.67;1.17;;;;;;;22.70;48.30;97989.72;5046065;28;20556;-72
2021/08/27 08:25:29;;;;;;;4.07;1.03;;;;;;;23.56;46.48;97987.34;5060603;28;20197;-72
2021/08/27 08:27:57;;;;;;;2.43;1.07;;;;;;;23.68;44.65;97995.97;5051883;28;20215;-72
2021/08/27 08:30:24;;;;;;;2.27;1.10;;;;;;;23.78;44.13;97998.59;5050776;28;20290;-72
2021/08/27 08:32:51;;;;;;;4.40;1.60;;;;;;;23.77;44.12;97997.78;5047176;28;20300;-72
2021/08/27 08:35:19;;;;;;;1.57;1.10;;;;;;;23.48;44.62;97996.09;5040687;28;20212;-75
2021/08/27 08:37:46;;;;;;;4.37;1.10;;;;;;;24.04;43.63;98003.59;5046572;28;20232;-78
2021/08/27 08:40:14;;;;;;;2.23;1.30;;;;;;;23.59;46.51;98003.09;5049908;28;20204;-74
2021/08/27 08:42:43;;;;;;;4.53;1.10;;;;;;;23.42;45.33;98003.50;5048633;28;20280;-71
2021/08/27 08:45:11;;;;;;;3.20;1.00;;;;;;;23.95;44.12;98007.19;5046994;28;20681;-78
2021/08/27 08:47:39;;;;;;;5.20;1.23;;;;;;;24.31;41.63;98012.03;5048842;28;20649;-73
2021/08/27 08:50:07;;;;;;;3.23;1.30;;;;;;;23.82;41.47;98024.19;5051320;28;20687;-78
2021/08/27 08:52:36;;;;;;;4.80;0.97;;;;;;;22.84;44.16;98017.97;5060436;28;20211;-78
2021/08/27 08:55:04;;;;;;;3.80;0.90;;;;;;;22.67;44.46;98017.50;5043505;28;20215;-77
2021/08/27 08:57:33;;;;;;;1.33;0.80;;;;;;;23.68;43.13;98013.13;5043510;28;20224;-76
2021/08/27 09:00:01;;;;;;;2.20;1.00;;;;;;;23.75;43.17;98016.34;5052455;28;20201;-77
2021/08/27 09:02:29;;;;;;;3.50;1.50;;;;;;;24.75;41.77;98004.50;5050167;28;20208;-77
2021/08/27 09:04:56;;;;;;;4.53;1.23;;;;;;;24.45;40.88;98028.53;5045454;28;20201;-77
2021/08/27 09:07:24;;;;;;;3.10;1.20;;;;;;;23.13;44.91;98021.63;5042365;28;20228;-77
2021/08/27 09:09:51;;;;;;;3.80;1.30;;;;;;;23.51;43.80;98020.88;5042705;28;20212;-76
2021/08/27 09:12:21;;;;;;;3.53;1.20;;;;;;;23.77;44.22;98024.25;5060658;28;20208;-75
2021/08/27 09:15:14;;;;;;;2.80;1.10;;;;;;;22.91;45.84;98017.66;5051851;28;20216;-75
2021/08/27 09:17:43;;;;;;;2.97;1.30;;;;;;;23.71;43.58;98022.66;5044192;28;20223;-77
2021/08/27 09:20:13;;;;;;;2.67;1.40;;;;;;;24.02;42.72;98026.78;5052047;28;20209;-77
2021/08/27 09:22:47;;;;;;;4.90;1.10;;;;;;;24.03;40.89;98025.69;5047047;28;20208;-78
2021/08/27 09:25:15;;;;;;;2.37;1.20;;;;;;;24.67;40.91;98026.16;5051588;28;20625;-76
2021/08/27 09:28:07;;;;;;;3.57;1.33;;;;;;;25.39;38.64;98033.97;5051900;28;20233;-76
2021/08/27 09:30:37;;;;;;;4.17;1.20;;;;;;;25.19;38.49;98039.69;5051826;28;20190;-76
2021/08/27 09:33:13;;;;;;;3.83;0.90;;;;;;;23.67;38.63;98046.13;5051948;28;20561;-76
2021/08/27 09:35:40;;;;;;;3.53;1.20;;;;;;;24.02;39.11;98040.41;5043894;28;20280;-76
2021/08/27 09:38:16;;;;;;;1.47;0.80;;;;;;;24.34;37.70;98051.56;5043568;28;20608;-76
2021/08/27 09:40:48;;;;;;;3.63;1.30;;;;;;;24.39;38.38;98044.16;5052333;28;20765;-76
2021/08/27 09:43:25;;;;;;;3.57;1.10;;;;;;;24.51;39.35;98038.28;5052053;28;20194;-76
2021/08/27 09:45:55;;;;;;;3.37;1.20;;;;;;;25.03;39.04;98032.81;5049144;28;20201;-76
2021/08/27 09:48:23;;;;;;;3.10;1.03;;;;;;;25.02;39.13;98034.72;5049632;28;20264;-77
2021/08/27 09:50:50;;;;;;;3.73;1.33;;;;;;;25.27;37.93;98041.78;5051849;28;20202;-77
2021/08/27 09:53:19;;;;;;;2.70;1.10;;;;;;;24.66;37.72;98033.53;5051430;28;20204;-77
2021/08/27 09:55:57;;;;;;;3.80;1.30;;;;;;;25.92;36.58;98049.03;5058381;28;20248;-76
2021/08/27 09:58:25;;;;;;;2.70;1.10;;;;;;;24.04;40.02;98035.47;5043911;28;20223;-76
2021/08/27 10:01:05;;;;;;;2.90;1.07;;;;;;;24.38;38.51;98036.25;5052045;28;20201;-76
2021/08/27 10:03:32;;;;;;;4.00;1.23;;;;;;;24.11;39.99;98030.53;5051537;28;20741;-78
2021/08/27 10:06:03;;;;;;;5.27;1.23;;;;;;;24.33;39.50;98034.38;5047611;28;20206;-76
2021/08/27 10:08:32;;;;;;;2.03;1.17;;;;;;;25.19;37.75;98042.44;5042833;28;20238;-76
2021/08/27 10:11:16;;;;;;;4.67;1.47;;;;;;;24.55;39.69;98036.59;5048281;28;20329;-77
2021/08/27 10:13:44;;;;;;;1.97;1.23;;;;;;;25.08;39.10;98036.28;5036011;28;20190;-77
2021/08/27 10:16:13;;;;;;;5.80;1.60;;;;;;;26.18;36.73;98039.31;5051299;28;20202;-77
2021/08/27 10:18:41;;;;;;;3.17;1.10;;;;;;;24.73;38.94;98033.19;5051641;28;20244;-76
2021/08/27 10:21:09;;;;;;;1.50;1.00;;;;;;;25.10;37.52;98044.19;5051759;28;20198;-76
2021/08/27 10:23:36;;;;;;;3.10;1.20;;;;;;;24.92;34.91;98056.69;5051161;28;20201;-77
2021/08/27 10:26:15;;;;;;;3.83;1.30;;;;;;;24.17;36.03;98045.75;5051849;28;20654;-78
2021/08/27 10:28:43;;;;;;;4.30;1.63;;;;;;;25.06;35.74;98043.97;5042790;28;20225;-76
2021/08/27 10:31:12;;;;;;;2.43;1.07;;;;;;;24.23;37.96;98030.94;5047958;28;20202;-78
2021/08/27 10:34:06;;;;;;;3.17;1.10;;;;;;;25.56;35.59;98031.53;5051356;28;20198;-76
2021/08/27 10:36:50;;;;;;;3.10;1.50;;;;;;;25.08;36.76;98035.47;5051170;28;20285;-78
2021/08/27 10:39:42;;;;;;;3.83;1.20;;;;;;;24.64;38.78;98022.09;5048324;28;20194;-76
2021/08/27 10:42:11;;;;;;;2.03;1.27;;;;;;;25.76;36.45;98032.06;5063462;28;20191;-76
2021/08/27 10:44:52;;;;;;;3.03;1.40;;;;;;;23.84;39.22;98022.81;5045127;28;20659;-76
2021/08/27 10:47:21;;;;;;;3.07;1.40;;;;;;;24.06;39.77;98027.84;5054773;28;20260;-77
2021/08/27 10:50:02;;;;;;;4.57;1.73;;;;;;;24.58;38.70;98028.69;5054760;28;20244;-79
2021/08/27 10:52:38;;;;;;;3.73;1.30;;;;;;;25.11;35.89;98029.41;5054689;28;20202;-78
2021/08/27 10:55:17;;;;;;;4.43;1.37;;;;;;;24.84;36.02;98032.78;5047311;28;20205;-78
2021/08/27 10:57:47;;;;;;;2.43;1.13;;;;;;;24.36;37.00;98031.09;5046435;28;20716;-77
2021/08/27 11:00:15;;;;;;;4.27;1.70;;;;;;;24.47;38.90;98024.41;5062887;28;20194;-77
2021/08/27 11:02:54;;;;;;;5.37;1.57;;;;;;;25.25;36.80;98022.97;5053392;28;20206;-77
2021/08/27 11:05:38;;;;;;;2.93;1.10;;;;;;;26.28;34.90;98028.19;5053156;28;20202;-77
2021/08/27 11:08:07;;;;;;;5.40;1.43;;;;;;;25.34;36.21;98026.66;5059238;28;20221;-77
2021/08/27 11:10:36;;;;;;;3.50;1.20;;;;;;;24.27;39.06;98034.72;5054606;28;20261;-77
2021/08/27 11:13:12;;;;;;;3.37;1.47;;;;;;;25.11;37.38;98032.97;5049699;28;20198;-77
2021/08/27 11:15:40;;;;;;;2.63;1.20;;;;;;;24.98;37.59;98030.16;5045882;28;20668;-77
2021/08/27 11:18:14;;;;;;;1.73;1.17;;;;;;;25.49;36.07;98052.97;5053960;28;20225;-77
2021/08/27 11:20:41;;;;;;;3.37;1.50;;;;;;;24.07;38.93;98037.66;5054530;28;20186;-77
2021/08/27 11:23:09;;;;;;;4.53;1.50;;;;;;;25.01;36.88;98035.00;5054485;28;20198;-77
2021/08/27 11:25:40;;;;;;;2.57;1.47;;;;;;;24.20;38.01;98040.53;5054140;28;20205;-77
2021/08/27 11:28:16;;;;;;;3.00;1.20;;;;;;;24.18;38.61;98039.19;5053225;28;20275;-76
2021/08/27 11:30:46;;;;;;;4.90;1.60;;;;;;;24.87;37.29;98031.38;5056104;28;20220;-78
2021/08/27 11:34:02;;;;;;;4.27;1.40;;;;;;;24.46;38.94;98030.97;5056398;28;20202;-77
2021/08/27 11:36:37;;;;;;;5.00;1.50;;;;;;;24.20;40.33;98023.34;5049303;28;20201;-77
2021/08/27 11:39:08;;;;;;;4.53;1.93;;;;;;;22.88;43.57;98026.38;5044402;28;20234;-77
2021/08/27 11:41:35;;;;;;;6.90;2.00;;;;;;;24.97;39.52;98012.94;5053707;28;20286;-76
2021/08/27 11:44:12;;;;;;;3.63;1.73;;;;;;;25.83;37.80;98026.19;5051913;28;20217;-77